createdAt,value
2019-01-09T00:01:28.932Z,15.93
2019-01-09T00:03:56.287Z,13.50
2019-01-09T00:06:23.613Z,16.67
2019-01-09T00:08:51.032Z,20.12
2019-01-09T00:11:18.345Z,14.38
2019-01-09T00:13:45.697Z,9.80
2019-01-09T00:16:13.208Z,16.35
2019-01-09T00:18:40.588Z,14.18
2019-01-09T00:21:07.908Z,24.57
2019-01-09T00:23:35.279Z,23.30
2019-01-09T00:26:02.629Z,20.12
2019-01-09T00:28:29.960Z,18.90
2019-01-09T00:30:57.342Z,20.92
2019-01-09T00:33:24.596Z,22.37
2019-01-09T00:35:52.008Z,19.55
2019-01-09T00:38:19.427Z,25.37
2019-01-09T00:40:46.800Z,29.90
2019-01-09T00:43:14.162Z,22.67
2019-01-09T00:45:41.514Z,15.25
2019-01-09T00:48:08.840Z,21.07
2019-01-09T00:50:36.262Z,28.02
2019-01-09T00:53:03.712Z,23.18
2019-01-09T00:55:31.016Z,17.17
2019-01-09T00:57:58.432Z,19.95
2019-01-09T01:00:25.908Z,23.52
2019-01-09T01:03:43.274Z,23.15
2019-01-09T01:06:53.348Z,25.68
2019-01-09T01:09:56.938Z,16.77
2019-01-09T01:13:16.808Z,19.48
2019-01-09T01:16:44.103Z,23.80
2019-01-09T01:19:57.683Z,21.95
2019-01-09T01:23:04.445Z,27.10
2019-01-09T01:26:09.372Z,22.60
2019-01-09T01:29:13.018Z,28.00
2019-01-09T01:32:00.810Z,24.37
2019-01-09T01:35:08.253Z,21.87
2019-01-09T01:38:04.820Z,24.45
2019-01-09T01:41:03.812Z,22.82
2019-01-09T01:43:49.038Z,22.90
2019-01-09T01:47:07.470Z,16.87
2019-01-09T01:49:54.859Z,26.68
2019-01-09T01:53:12.852Z,15.98
2019-01-09T01:56:12.500Z,18.95
2019-01-09T01:58:50.365Z,21.82
2019-01-09T02:02:08.512Z,19.57
2019-01-09T02:05:00.901Z,21.62
2019-01-09T02:07:48.948Z,20.17
2019-01-09T02:11:19.200Z,22.93
2019-01-09T02:14:01.713Z,25.23
2019-01-09T02:17:11.092Z,14.75
2019-01-09T02:19:49.749Z,23.27
2019-01-09T02:22:47.548Z,22.02
2019-01-09T02:25:59.408Z,18.95
2019-01-09T02:28:59.216Z,17.55
2019-01-09T02:32:01.139Z,17.62
2019-01-09T02:34:28.685Z,23.92
2019-01-09T02:36:56.049Z,21.73
2019-01-09T02:39:23.406Z,22.58
2019-01-09T02:41:50.726Z,22.45
2019-01-09T02:44:18.039Z,22.85
2019-01-09T02:46:45.339Z,17.23
2019-01-09T02:49:12.680Z,20.05
2019-01-09T02:51:39.995Z,15.88
2019-01-09T02:54:07.330Z,18.17
2019-01-09T02:56:34.825Z,18.82
2019-01-09T02:59:02.067Z,12.30
2019-01-09T03:01:29.381Z,15.23
2019-01-09T03:03:56.735Z,17.32
2019-01-09T03:06:24.126Z,18.52
2019-01-09T03:08:51.466Z,11.30
2019-01-09T03:11:18.843Z,19.92
2019-01-09T03:13:46.229Z,18.80
2019-01-09T03:16:13.529Z,12.85
2019-01-09T03:18:40.859Z,16.55
2019-01-09T03:21:08.233Z,14.45
2019-01-09T03:23:35.545Z,14.20
2019-01-09T03:26:02.791Z,18.02
2019-01-09T03:28:30.131Z,18.92
2019-01-09T03:30:57.574Z,17.07
2019-01-09T03:33:24.893Z,12.43
2019-01-09T03:35:52.251Z,12.95
2019-01-09T03:38:19.645Z,10.25
2019-01-09T03:40:47.006Z,16.87
2019-01-09T03:43:14.352Z,13.75
2019-01-09T03:45:41.575Z,15.18
2019-01-09T03:48:08.938Z,17.73
2019-01-09T03:50:36.295Z,11.28
2019-01-09T03:53:03.668Z,19.07
2019-01-09T03:55:30.997Z,12.65
2019-01-09T03:57:58.351Z,9.25
2019-01-09T04:00:25.585Z,15.68
2019-01-09T04:02:52.948Z,11.03
2019-01-09T04:05:20.403Z,16.37
2019-01-09T04:07:47.748Z,13.00
2019-01-09T04:10:15.070Z,14.03
2019-01-09T04:12:42.407Z,14.25
2019-01-09T04:15:09.740Z,20.50
2019-01-09T04:17:37.157Z,13.68
2019-01-09T04:20:04.836Z,10.55
2019-01-09T04:22:32.229Z,18.65
2019-01-09T04:24:59.545Z,11.03
2019-01-09T04:27:26.872Z,8.60
2019-01-09T04:29:54.217Z,13.75
2019-01-09T04:32:21.545Z,9.68
2019-01-09T04:34:48.923Z,15.95
2019-01-09T04:37:16.260Z,10.23
2019-01-09T04:39:43.585Z,11.48
2019-01-09T04:42:10.923Z,12.13
2019-01-09T04:44:38.225Z,10.98
2019-01-09T04:47:05.569Z,8.98
2019-01-09T04:49:32.905Z,13.50
2019-01-09T04:52:00.246Z,9.65
2019-01-09T04:54:27.575Z,10.05
2019-01-09T04:56:56.894Z,6.42
2019-01-09T04:59:24.225Z,11.38
2019-01-09T05:01:51.654Z,12.78
2019-01-09T05:04:19.014Z,10.08
2019-01-09T05:06:47.301Z,12.88
2019-01-09T05:09:14.664Z,15.63
2019-01-09T05:11:41.925Z,9.68
2019-01-09T05:14:09.249Z,11.85
2019-01-09T05:16:36.470Z,13.75
2019-01-09T05:19:03.749Z,12.60
2019-01-09T05:21:31.075Z,13.65
2019-01-09T05:23:58.461Z,13.03
2019-01-09T05:26:25.829Z,10.38
2019-01-09T05:28:53.264Z,9.88
2019-01-09T05:31:20.589Z,11.20
2019-01-09T05:33:47.903Z,15.25
2019-01-09T05:36:15.222Z,11.00
2019-01-09T05:38:42.525Z,19.02
2019-01-09T05:41:09.793Z,14.18
2019-01-09T05:43:37.135Z,17.10
2019-01-09T05:46:04.501Z,16.62
2019-01-09T05:48:31.857Z,11.38
2019-01-09T05:50:59.209Z,16.52
2019-01-09T05:53:26.536Z,15.75
2019-01-09T05:55:53.942Z,17.00
2019-01-09T05:58:21.515Z,17.85
2019-01-09T06:00:48.880Z,13.88
2019-01-09T06:03:16.255Z,15.88
2019-01-09T06:05:43.705Z,14.65
2019-01-09T06:08:11.146Z,13.40
2019-01-09T06:10:38.417Z,14.85
2019-01-09T06:13:05.734Z,15.28
2019-01-09T06:15:33.053Z,12.95
2019-01-09T06:18:00.398Z,16.93
2019-01-09T06:20:27.733Z,16.37
2019-01-09T06:22:55.065Z,12.37
2019-01-09T06:25:22.432Z,15.18
2019-01-09T06:27:49.771Z,25.15
2019-01-09T06:30:17.143Z,18.45
2019-01-09T06:32:44.448Z,15.30
2019-01-09T06:35:11.869Z,17.95
2019-01-09T06:37:39.194Z,15.98
2019-01-09T06:40:06.727Z,15.40
2019-01-09T06:42:34.071Z,14.90
2019-01-09T06:45:01.409Z,11.25
2019-01-09T06:47:28.783Z,14.05
2019-01-09T06:49:56.104Z,19.57
2019-01-09T06:52:23.322Z,18.57
2019-01-09T06:54:50.648Z,14.68
2019-01-09T06:57:17.999Z,9.15
2019-01-09T06:59:45.334Z,17.77
2019-01-09T07:02:12.692Z,10.20
2019-01-09T07:04:40.039Z,13.53
2019-01-09T07:07:07.386Z,15.70
2019-01-09T07:09:34.703Z,16.85
2019-01-09T07:12:02.038Z,13.40
2019-01-09T07:14:29.264Z,14.83
2019-01-09T07:16:56.590Z,10.35
2019-01-09T07:19:23.813Z,15.65
2019-01-09T07:21:51.136Z,12.37
2019-01-09T07:24:18.407Z,14.75
2019-01-09T07:26:45.708Z,10.58
2019-01-09T07:29:13.006Z,12.60
2019-01-09T07:31:40.548Z,12.50
2019-01-09T07:34:07.912Z,15.38
2019-01-09T07:36:35.119Z,10.88
2019-01-09T07:39:03.307Z,14.58
2019-01-09T07:41:30.638Z,19.42
2019-01-09T07:43:57.854Z,16.97
2019-01-09T07:46:25.055Z,16.12
2019-01-09T07:48:52.265Z,17.48
2019-01-09T07:51:19.514Z,15.98
2019-01-09T07:53:46.947Z,15.15
2019-01-09T07:56:14.265Z,15.45
2019-01-09T07:58:41.591Z,16.60
2019-01-09T08:01:08.927Z,8.65
2019-01-09T08:03:36.127Z,13.58
2019-01-09T08:06:03.339Z,12.53
2019-01-09T08:08:30.763Z,13.22
2019-01-09T08:10:58.093Z,18.32
2019-01-09T08:13:25.389Z,17.07
2019-01-09T08:15:52.733Z,22.87
2019-01-09T08:18:20.027Z,13.13
2019-01-09T08:20:47.346Z,23.95
2019-01-09T08:23:14.667Z,20.23
2019-01-09T08:25:41.933Z,14.53
2019-01-09T08:28:09.185Z,22.00
2019-01-09T08:30:36.545Z,16.67
2019-01-09T08:33:03.803Z,23.35
2019-01-09T08:35:31.148Z,18.48
2019-01-09T08:38:02.864Z,17.32
2019-01-09T08:40:29.029Z,18.20
2019-01-09T08:42:56.749Z,23.92
2019-01-09T08:45:23.969Z,14.93
2019-01-09T08:47:51.301Z,16.62
2019-01-09T08:50:18.574Z,21.85
2019-01-09T08:52:45.823Z,20.65
2019-01-09T08:55:13.125Z,18.35
2019-01-09T08:57:40.417Z,12.82
2019-01-09T09:00:09.421Z,21.42
2019-01-09T09:02:36.747Z,18.17
2019-01-09T09:05:04.201Z,19.32
2019-01-09T09:07:31.710Z,19.40
2019-01-09T09:09:58.891Z,21.10
2019-01-09T09:12:26.079Z,26.75
2019-01-09T09:14:53.281Z,15.28
2019-01-09T09:17:20.345Z,14.43
2019-01-09T09:19:47.745Z,13.53
2019-01-09T09:22:14.953Z,17.27
2019-01-09T09:24:42.276Z,13.50
2019-01-09T09:27:09.505Z,18.90
2019-01-09T09:29:36.818Z,14.47
2019-01-09T09:32:04.116Z,15.70
2019-01-09T09:34:31.466Z,14.87
2019-01-09T09:36:58.669Z,17.23
2019-01-09T09:39:25.982Z,13.93
2019-01-09T09:41:53.299Z,11.43
2019-01-09T09:44:20.518Z,13.30
2019-01-09T09:46:47.829Z,13.10
2019-01-09T09:49:16.975Z,12.13
2019-01-09T09:51:44.404Z,22.47
2019-01-09T09:54:11.629Z,15.63
2019-01-09T09:56:38.971Z,15.27
2019-01-09T09:59:06.259Z,19.43
2019-01-09T10:01:33.612Z,18.20
2019-01-09T10:04:01.025Z,18.33
2019-01-09T10:06:28.376Z,16.77
2019-01-09T10:08:55.600Z,17.40
2019-01-09T10:11:22.959Z,17.67
2019-01-09T10:13:50.282Z,17.03
2019-01-09T10:16:17.509Z,15.77
2019-01-09T10:18:44.723Z,13.20
2019-01-09T10:21:11.959Z,13.13
2019-01-09T10:23:39.336Z,14.40
2019-01-09T10:26:06.644Z,14.57
2019-01-09T10:28:33.972Z,16.33
2019-01-09T10:31:01.185Z,13.53
2019-01-09T10:33:28.388Z,14.37
2019-01-09T10:35:55.688Z,16.77
2019-01-09T10:38:22.930Z,15.93
2019-01-09T10:40:50.150Z,20.37
2019-01-09T10:43:17.419Z,18.10
2019-01-09T10:45:44.744Z,14.17
2019-01-09T10:48:11.984Z,15.80
2019-01-09T10:50:39.312Z,17.13
2019-01-09T10:53:07.366Z,24.73
2019-01-09T10:55:34.670Z,19.20
2019-01-09T10:58:02.025Z,22.90
2019-01-09T11:00:29.344Z,15.30
2019-01-09T11:02:56.763Z,18.23
2019-01-09T11:05:23.990Z,14.43
2019-01-09T11:07:51.301Z,16.13
2019-01-09T11:10:18.785Z,22.37
2019-01-09T11:12:46.789Z,13.47
2019-01-09T11:15:14.248Z,15.00
2019-01-09T11:17:41.564Z,14.37
2019-01-09T11:20:12.429Z,12.93
2019-01-09T11:22:39.765Z,14.63
2019-01-09T11:25:09.394Z,16.17
2019-01-09T11:27:36.632Z,20.53
2019-01-09T11:30:06.387Z,17.25
2019-01-09T11:32:33.686Z,11.87
2019-01-09T11:35:00.892Z,16.57
2019-01-09T11:37:28.216Z,15.10
2019-01-09T11:39:55.416Z,17.57
2019-01-09T11:42:22.632Z,15.10
2019-01-09T11:44:49.836Z,9.77
2019-01-09T11:47:17.089Z,9.10
2019-01-09T11:49:44.377Z,14.63
2019-01-09T11:52:11.704Z,17.40
2019-01-09T11:54:39.017Z,9.27
2019-01-09T11:57:06.353Z,12.30
2019-01-09T11:59:33.661Z,8.33
2019-01-09T12:02:00.898Z,8.10
2019-01-09T12:04:28.203Z,10.53
2019-01-09T12:06:55.562Z,10.67
2019-01-09T12:09:22.759Z,11.20
2019-01-09T12:11:50.099Z,6.17
2019-01-09T12:14:17.322Z,9.80
2019-01-09T12:16:44.541Z,11.20
2019-01-09T12:19:11.877Z,12.43
2019-01-09T12:21:39.249Z,7.10
2019-01-09T12:24:06.501Z,12.07
2019-01-09T12:26:33.807Z,12.20
2019-01-09T12:29:01.042Z,7.67
2019-01-09T12:31:28.250Z,8.10
2019-01-09T12:33:55.562Z,10.43
2019-01-09T12:36:22.850Z,12.03
2019-01-09T12:38:50.192Z,11.73
2019-01-09T12:41:17.553Z,11.57
2019-01-09T12:43:44.895Z,14.63
2019-01-09T12:46:12.222Z,12.27
2019-01-09T12:48:39.522Z,10.17
2019-01-09T12:51:06.867Z,12.37
2019-01-09T12:53:34.408Z,14.87
2019-01-09T12:56:01.667Z,13.00
2019-01-09T12:58:28.919Z,12.80
2019-01-09T13:00:56.268Z,13.13
2019-01-09T13:03:23.459Z,6.03
2019-01-09T13:05:50.816Z,6.47
2019-01-09T13:08:18.149Z,14.37
2019-01-09T13:10:45.403Z,8.70
2019-01-09T13:13:12.609Z,15.00
2019-01-09T13:15:39.894Z,12.50
2019-01-09T13:18:07.298Z,11.23
2019-01-09T13:20:34.636Z,10.43
2019-01-09T13:23:04.718Z,8.93
2019-01-09T13:25:31.922Z,8.67
2019-01-09T13:27:59.224Z,12.77
2019-01-09T13:30:26.447Z,10.20
2019-01-09T13:32:53.810Z,5.58
2019-01-09T13:35:21.015Z,10.60
2019-01-09T13:37:48.324Z,11.12
2019-01-09T13:40:16.832Z,9.40
2019-01-09T13:42:44.139Z,9.35
2019-01-09T13:45:13.965Z,7.17
2019-01-09T13:47:41.690Z,7.67
2019-01-09T13:50:09.273Z,10.90
2019-01-09T13:52:36.475Z,13.40
2019-01-09T13:55:03.962Z,12.03
2019-01-09T13:57:31.183Z,10.20
2019-01-09T13:59:58.515Z,8.53
2019-01-09T14:02:25.878Z,6.42
2019-01-09T14:04:53.250Z,8.08
2019-01-09T14:07:20.523Z,4.77
2019-01-09T14:09:47.756Z,7.00
2019-01-09T14:12:15.108Z,4.33
2019-01-09T14:14:42.468Z,9.88
2019-01-09T14:17:09.858Z,5.55
2019-01-09T14:19:37.084Z,10.03
2019-01-09T14:22:04.449Z,15.20
2019-01-09T14:24:31.657Z,11.53
2019-01-09T14:26:58.886Z,12.33
2019-01-09T14:29:26.092Z,11.25
2019-01-09T14:31:53.343Z,8.85
2019-01-09T14:34:20.562Z,9.55
2019-01-09T14:36:47.966Z,7.60
2019-01-09T14:39:15.344Z,11.80
2019-01-09T14:41:42.599Z,7.17
2019-01-09T14:44:09.904Z,7.35
2019-01-09T14:46:37.109Z,7.60
2019-01-09T14:49:04.416Z,12.28
2019-01-09T14:51:31.629Z,11.25
2019-01-09T14:53:58.835Z,7.40
2019-01-09T14:56:26.167Z,9.10
2019-01-09T14:58:53.478Z,6.25
2019-01-09T15:01:20.799Z,8.25
2019-01-09T15:03:48.179Z,6.92
2019-01-09T15:06:15.598Z,8.30
2019-01-09T15:08:42.905Z,7.75
2019-01-09T15:11:10.226Z,8.40
2019-01-09T15:13:37.464Z,4.67
2019-01-09T15:16:04.716Z,9.68
2019-01-09T15:18:31.980Z,9.58
2019-01-09T15:20:59.214Z,5.92
2019-01-09T15:23:26.577Z,8.05
2019-01-09T15:25:53.932Z,8.30
2019-01-09T15:28:21.275Z,9.28
2019-01-09T15:30:48.518Z,9.65
2019-01-09T15:33:15.843Z,9.13
2019-01-09T15:35:43.282Z,13.08
2019-01-09T15:38:10.605Z,8.78
2019-01-09T15:40:37.904Z,6.50
2019-01-09T15:43:05.324Z,8.18
2019-01-09T15:45:32.672Z,5.45
2019-01-09T15:47:59.912Z,7.78
2019-01-09T15:50:27.354Z,7.00
2019-01-09T15:52:54.722Z,10.18
2019-01-09T15:55:21.968Z,6.08
2019-01-09T15:57:52.350Z,11.65
2019-01-09T16:00:24.755Z,12.05
2019-01-09T16:02:52.042Z,8.83
2019-01-09T16:05:19.253Z,9.33
2019-01-09T16:07:46.570Z,8.25
2019-01-09T16:10:14.880Z,5.40
2019-01-09T16:12:42.272Z,7.78
2019-01-09T16:15:10.607Z,11.57
2019-01-09T16:17:37.877Z,9.33
2019-01-09T16:20:05.550Z,6.60
2019-01-09T16:22:32.877Z,8.23
2019-01-09T16:25:00.314Z,11.95
2019-01-09T16:27:27.656Z,8.38
2019-01-09T16:29:54.986Z,14.58
2019-01-09T16:32:22.231Z,7.25
2019-01-09T16:34:49.612Z,11.97
2019-01-09T16:37:17.004Z,10.00
2019-01-09T16:39:44.319Z,7.33
2019-01-09T16:42:11.660Z,10.35
2019-01-09T16:44:39.067Z,11.15
2019-01-09T16:47:06.432Z,10.55
2019-01-09T16:49:33.780Z,7.60
2019-01-09T16:52:01.131Z,9.03
2019-01-09T16:54:28.380Z,8.80
2019-01-09T16:56:55.701Z,9.95
2019-01-09T16:59:23.028Z,12.60
2019-01-09T17:01:50.361Z,13.83
2019-01-09T17:04:19.872Z,11.78
2019-01-09T17:06:47.204Z,9.60
2019-01-09T17:09:14.579Z,10.10
2019-01-09T17:11:41.840Z,10.58
2019-01-09T17:14:09.353Z,10.43
2019-01-09T17:16:36.692Z,11.73
2019-01-09T17:19:04.093Z,8.13
2019-01-09T17:21:31.442Z,11.08
2019-01-09T17:23:58.852Z,10.28
2019-01-09T17:26:26.180Z,12.47
2019-01-09T17:28:53.678Z,14.03
2019-01-09T17:31:21.068Z,10.58
2019-01-09T17:33:48.860Z,9.78
2019-01-09T17:36:16.250Z,14.00
2019-01-09T17:38:43.663Z,12.15
2019-01-09T17:41:12.403Z,14.78
2019-01-09T17:43:39.968Z,12.73
2019-01-09T17:46:07.253Z,7.80
2019-01-09T17:48:34.629Z,12.65
2019-01-09T17:51:01.878Z,15.68
2019-01-09T17:53:29.242Z,10.30
2019-01-09T17:55:56.569Z,8.35
2019-01-09T17:58:23.924Z,8.98
2019-01-09T18:00:51.364Z,15.03
2019-01-09T18:03:18.737Z,13.88
2019-01-09T18:05:46.084Z,11.20
2019-01-09T18:08:13.496Z,12.95
2019-01-09T18:10:49.727Z,17.50
2019-01-09T18:13:10.096Z,16.37
2019-01-09T18:15:37.433Z,11.80
2019-01-09T18:18:05.999Z,17.23
2019-01-09T18:20:33.375Z,8.45
2019-01-09T18:23:00.928Z,12.37
2019-01-09T18:25:29.620Z,14.28
2019-01-09T18:27:57.023Z,12.55
2019-01-09T18:30:33.510Z,12.68
2019-01-09T18:33:13.434Z,12.93
2019-01-09T18:35:57.269Z,16.40
2019-01-09T18:39:07.347Z,10.30
2019-01-09T18:42:31.796Z,13.32
2019-01-09T18:45:39.800Z,13.05
2019-01-09T18:48:33.768Z,16.65
2019-01-09T18:51:37.091Z,14.78
2019-01-09T18:54:04.497Z,15.28
2019-01-09T18:56:31.905Z,16.80
2019-01-09T18:58:59.269Z,13.60
2019-01-09T19:01:26.956Z,14.75
2019-01-09T19:03:56.118Z,11.43
2019-01-09T19:06:23.447Z,11.65
2019-01-09T19:08:50.846Z,14.65
2019-01-09T19:11:18.204Z,11.70
2019-01-09T19:13:45.614Z,20.70
2019-01-09T19:16:13.049Z,17.17
2019-01-09T19:18:40.398Z,10.93
2019-01-09T19:21:07.825Z,10.30
2019-01-09T19:23:35.334Z,12.05
2019-01-09T19:26:03.122Z,17.85
2019-01-09T19:28:30.672Z,15.10
2019-01-09T19:30:57.989Z,14.30
2019-01-09T19:33:25.469Z,13.60
2019-01-09T19:35:52.837Z,9.80
2019-01-09T19:38:20.187Z,13.90
2019-01-09T19:40:47.620Z,11.63
2019-01-09T19:43:15.205Z,12.53
2019-01-09T19:45:42.485Z,13.83
2019-01-09T19:48:10.091Z,17.67
2019-01-09T19:50:42.498Z,12.68
2019-01-09T19:53:06.880Z,16.48
2019-01-09T19:55:34.224Z,10.98
2019-01-09T19:58:01.564Z,15.32
2019-01-09T20:00:28.900Z,13.80
2019-01-09T20:02:56.300Z,15.72
2019-01-09T20:05:23.699Z,9.90
2019-01-09T20:07:51.192Z,13.70
2019-01-09T20:10:20.494Z,13.68
2019-01-09T20:12:48.157Z,12.53
2019-01-09T20:15:16.726Z,14.30
2019-01-09T20:17:44.180Z,7.15
2019-01-09T20:20:13.669Z,9.78
2019-01-09T20:22:41.152Z,18.62
2019-01-09T20:25:09.002Z,11.08
2019-01-09T20:27:36.440Z,11.10
2019-01-09T20:30:06.407Z,8.48
2019-01-09T20:32:33.915Z,6.42
2019-01-09T20:35:01.343Z,11.00
2019-01-09T20:37:28.788Z,12.70
2019-01-09T20:39:56.207Z,12.40
2019-01-09T20:42:23.644Z,10.23
2019-01-09T20:44:51.249Z,12.93
2019-01-09T20:47:18.640Z,10.78
2019-01-09T20:49:46.061Z,9.73
2019-01-09T20:52:13.613Z,9.93
2019-01-09T20:54:40.947Z,5.75
2019-01-09T20:57:10.211Z,10.95
2019-01-09T20:59:37.591Z,11.18
2019-01-09T21:02:07.909Z,8.10
2019-01-09T21:04:35.290Z,11.83
2019-01-09T21:07:02.943Z,9.33
2019-01-09T21:09:30.342Z,11.28
2019-01-09T21:11:57.603Z,13.70
2019-01-09T21:14:25.035Z,7.75
2019-01-09T21:16:52.368Z,15.50
2019-01-09T21:19:28.732Z,11.75
2019-01-09T21:21:56.157Z,9.10
2019-01-09T21:24:23.388Z,14.18
2019-01-09T21:26:50.792Z,11.18
2019-01-09T21:29:18.260Z,7.72
2019-01-09T21:31:45.554Z,11.38
2019-01-09T21:34:12.932Z,12.40
2019-01-09T21:36:40.165Z,11.00
2019-01-09T21:39:08.436Z,13.25
2019-01-09T21:41:36.050Z,8.70
2019-01-09T21:44:03.408Z,13.95
2019-01-09T21:46:30.831Z,10.40
2019-01-09T21:48:58.133Z,11.78
2019-01-09T21:51:25.332Z,12.73
2019-01-09T21:53:52.656Z,7.15
2019-01-09T21:56:22.660Z,10.10
2019-01-09T21:58:49.987Z,14.25
2019-01-09T22:01:17.398Z,10.88
2019-01-09T22:03:44.614Z,10.08
2019-01-09T22:06:14.300Z,8.30
2019-01-09T22:08:41.660Z,10.23
2019-01-09T22:11:08.984Z,11.30
2019-01-09T22:13:36.286Z,7.90
2019-01-09T22:16:06.238Z,8.18
2019-01-09T22:18:33.661Z,12.20
2019-01-09T22:21:03.658Z,12.18
2019-01-09T22:23:30.974Z,8.53
2019-01-09T22:26:01.052Z,10.78
2019-01-09T22:28:28.417Z,13.72
2019-01-09T22:30:55.683Z,13.08
2019-01-09T22:33:23.040Z,10.58
2019-01-09T22:35:50.257Z,10.28
2019-01-09T22:38:17.681Z,10.48
2019-01-09T22:40:44.885Z,9.35
2019-01-09T22:43:12.224Z,14.38
2019-01-09T22:45:39.630Z,9.25
2019-01-09T22:48:07.007Z,7.95
2019-01-09T22:50:34.245Z,9.88
2019-01-09T22:53:01.567Z,6.35
2019-01-09T22:55:28.774Z,7.83
2019-01-09T22:57:55.971Z,9.75
2019-01-09T23:00:45.597Z,10.32
2019-01-09T23:03:13.159Z,10.05
2019-01-09T23:05:40.686Z,9.03
2019-01-09T23:08:08.024Z,7.70
2019-01-09T23:10:35.364Z,8.43
2019-01-09T23:13:02.584Z,6.28
2019-01-09T23:15:30.246Z,12.05
2019-01-09T23:17:57.796Z,10.93
2019-01-09T23:20:25.328Z,10.80
2019-01-09T23:22:52.539Z,9.13
2019-01-09T23:25:19.934Z,9.23
2019-01-09T23:27:47.142Z,8.88
2019-01-09T23:30:14.501Z,9.75
2019-01-09T23:32:41.884Z,11.28
2019-01-09T23:35:09.605Z,8.70
2019-01-09T23:37:37.044Z,10.93
2019-01-09T23:40:04.668Z,9.20
2019-01-09T23:42:32.204Z,9.05
2019-01-09T23:44:59.524Z,7.22
2019-01-09T23:47:26.876Z,14.70
2019-01-09T23:49:54.196Z,8.25
2019-01-09T23:52:21.699Z,8.20
2019-01-09T23:54:49.129Z,9.35
2019-01-09T23:57:16.452Z,8.23
2019-01-09T23:59:43.776Z,9.23
